Time;durP1;ratioP1;P1;durP2;ratioP2;P2;SDS_P1;SDS_P2;PMS_P1;PMS_P2;Temp;Humidity;BMP_temperature;BMP_pressure;BME280_temperature;BME280_humidity;BME280_pressure;Samples;Min_cycle;Max_cycle;Signal;HPM_P1;HPM_P2
2022/02/07 00:03:57;;;;;;;3.70;2.40;;;;;;;0.95;100.00;100220.88;30723314;28;20047;-81
2022/02/07 00:18:55;;;;;;;11.77;6.23;;;;;;;0.80;100.00;100196.88;30713610;28;20465;-81
2022/02/07 00:33:57;;;;;;;15.20;5.47;;;;;;;0.75;100.00;100168.53;30702569;28;20051;-81
2022/02/07 00:48:59;;;;;;;15.03;4.77;;;;;;;0.82;100.00;100141.97;30736957;28;20059;-81
2022/02/07 01:04:01;;;;;;;7.27;4.57;;;;;;;0.91;100.00;100123.84;30717532;28;20135;-81
2022/02/07 01:50:40;;;;;;;8.77;4.77;;;;;;;1.07;100.00;100054.22;30708048;28;20122;-79
2022/02/07 02:05:14;;;;;;;6.97;4.40;;;;;;;1.08;100.00;100017.56;30691733;28;20090;-81
2022/02/07 02:51:06;;;;;;;5.60;3.77;;;;;;;1.02;100.00;99953.72;30724825;28;20147;-79
2022/02/07 03:06:08;;;;;;;4.93;2.90;;;;;;;0.94;100.00;99952.06;30740801;28;20082;-80
2022/02/07 03:21:10;;;;;;;5.27;3.53;;;;;;;0.92;100.00;99946.31;30702978;28;20387;-80
2022/02/07 03:36:15;;;;;;;4.27;2.73;;;;;;;0.93;100.00;99928.38;30686095;29;20051;-79
2022/02/07 03:51:17;;;;;;;9.50;4.00;;;;;;;0.99;100.00;99882.25;30694431;28;20134;-79
2022/02/07 04:06:21;;;;;;;9.70;4.40;;;;;;;0.99;100.00;99884.91;30723083;28;20051;-80
2022/02/07 04:21:23;;;;;;;5.83;3.00;;;;;;;0.91;100.00;99877.94;30696619;28;20143;-78
2022/02/07 04:36:25;;;;;;;6.20;3.57;;;;;;;0.91;100.00;99859.22;30697103;28;20481;-78
2022/02/07 05:22:18;;;;;;;9.33;4.13;;;;;;;1.47;100.00;99831.72;30729978;28;20082;-79
2022/02/07 05:37:21;;;;;;;8.07;4.37;;;;;;;1.54;100.00;99839.06;30717785;28;20053;-77
2022/02/07 05:52:23;;;;;;;5.77;3.90;;;;;;;1.53;100.00;99846.31;30700443;28;20131;-78
2022/02/07 06:07:25;;;;;;;5.67;3.63;;;;;;;1.59;100.00;99812.78;30687289;28;20146;-78
2022/02/07 06:22:27;;;;;;;8.17;3.90;;;;;;;1.59;100.00;99807.41;30705454;28;20062;-80
2022/02/07 06:37:29;;;;;;;4.53;3.63;;;;;;;1.73;100.00;99806.03;30727254;28;20064;-73
2022/02/07 06:52:31;;;;;;;9.03;3.57;;;;;;;1.79;100.00;99781.25;30721216;28;20057;-75
2022/02/07 07:07:33;;;;;;;8.27;3.60;;;;;;;1.80;100.00;99782.81;30718084;28;20058;-75
2022/02/07 07:22:35;;;;;;;4.87;2.87;;;;;;;1.79;100.00;99767.09;30704694;28;20059;-79
2022/02/07 07:37:38;;;;;;;9.87;5.60;;;;;;;1.84;100.00;99777.50;30732674;28;20138;-79
2022/02/07 08:07:57;;;;;;;5.13;3.00;;;;;;;1.89;100.00;99763.78;30686712;28;20058;-78
2022/02/07 08:23:03;;;;;;;11.33;5.10;;;;;;;2.00;100.00;99737.88;30723041;28;20057;-78
2022/02/07 08:38:05;;;;;;;;;;;;;;;2.12;100.00;99737.59;30735733;28;20048;-78
2022/02/07 08:53:07;;;;;;;15.53;3.70;;;;;;;2.22;100.00;99722.75;30692190;28;19958;-78
2022/02/07 09:08:23;;;;;;;8.83;3.97;;;;;;;2.35;100.00;99706.03;30734621;28;20497;-78
2022/02/07 09:23:27;;;;;;;4.93;2.93;;;;;;;2.35;100.00;99683.81;30694177;28;20059;-78
2022/02/07 09:38:30;;;;;;;10.20;4.10;;;;;;;2.47;100.00;99658.63;30700130;29;20142;-78
2022/02/07 09:53:34;;;;;;;7.00;4.20;;;;;;;2.67;100.00;99635.75;30712934;28;20063;-77
2022/02/07 10:08:51;;;;;;;5.57;2.93;;;;;;;3.06;100.00;99642.06;30700544;28;20059;-74
2022/02/07 10:39:35;;;;;;;7.13;3.47;;;;;;;3.29;100.00;99598.06;30727397;28;20073;-75
2022/02/07 10:54:50;;;;;;;10.03;4.77;;;;;;;3.42;100.00;99567.00;30683662;28;20118;-75
2022/02/07 11:40:30;;;;;;;11.67;6.33;;;;;;;3.93;100.00;99525.56;30753898;28;20047;-75
2022/02/07 11:55:42;;;;;;;17.13;7.53;;;;;;;3.90;100.00;99516.34;30705316;28;20138;-74
2022/02/07 12:11:04;;;;;;;18.67;8.07;;;;;;;4.32;100.00;99507.41;30715910;28;20138;-74
2022/02/07 12:26:11;;;;;;;17.83;9.23;;;;;;;5.48;100.00;99496.28;30742424;28;20064;-74
2022/02/07 12:41:15;;;;;;;18.90;9.50;;;;;;;5.23;100.00;99490.34;30734956;28;20063;-74
2022/02/07 12:56:18;;;;;;;17.73;10.00;;;;;;;4.92;100.00;99466.00;30701435;28;20055;-74
2022/02/07 13:11:24;;;;;;;18.07;9.13;;;;;;;4.65;100.00;99448.88;30731540;28;20126;-75
2022/02/07 13:26:27;;;;;;;16.20;8.77;;;;;;;4.67;100.00;99450.03;30741393;28;20066;-74
2022/02/07 13:41:29;;;;;;;21.27;10.07;;;;;;;4.58;100.00;99424.72;30734022;28;20414;-73
2022/02/07 13:56:35;;;;;;;21.50;8.53;;;;;;;4.57;100.00;99429.34;30723215;28;20138;-73
2022/02/07 14:11:37;;;;;;;16.90;8.50;;;;;;;4.47;100.00;99413.28;30737016;28;20490;-73
2022/02/07 14:26:40;;;;;;;16.63;7.97;;;;;;;4.38;100.00;99401.03;30719565;28;20702;-75
2022/02/07 14:41:45;;;;;;;19.90;8.60;;;;;;;4.36;100.00;99391.84;30736371;28;20421;-75
2022/02/07 14:56:47;;;;;;;14.57;7.30;;;;;;;4.32;100.00;99389.16;30740927;28;20047;-73
2022/02/07 15:11:49;;;;;;;19.63;8.67;;;;;;;4.25;100.00;99380.41;30754371;28;20515;-73
2022/02/07 15:26:51;;;;;;;26.13;9.73;;;;;;;4.21;100.00;99385.03;30733316;28;20134;-74
2022/02/07 15:41:53;;;;;;;29.00;12.43;;;;;;;4.26;100.00;99393.41;30717215;28;20138;-73
2022/02/07 15:56:55;;;;;;;32.20;14.00;;;;;;;4.16;100.00;99377.38;30715976;28;20174;-73
2022/02/07 16:11:58;;;;;;;27.17;13.20;;;;;;;4.07;100.00;99364.34;30717934;28;20107;-75
2022/02/07 16:27:01;;;;;;;33.17;13.50;;;;;;;3.84;100.00;99335.31;30727291;28;20414;-75
2022/02/07 16:42:03;;;;;;;32.17;15.37;;;;;;;3.54;100.00;99308.25;30720231;28;20508;-73
2022/02/07 16:57:05;;;;;;;30.60;14.23;;;;;;;3.45;100.00;99286.41;30721697;28;20142;-74
2022/02/07 17:12:07;;;;;;;33.97;16.10;;;;;;;3.42;100.00;99293.31;30739410;28;20050;-73
2022/02/07 17:27:09;;;;;;;38.67;16.13;;;;;;;3.47;100.00;99286.81;30756836;28;20477;-75
2022/02/07 17:42:11;;;;;;;35.60;15.50;;;;;;;3.35;100.00;99271.88;30724764;29;20521;-74
2022/02/07 17:57:14;;;;;;;26.50;15.07;;;;;;;3.34;100.00;99289.13;30729826;28;20113;-76
2022/02/07 18:12:16;;;;;;;34.10;16.23;;;;;;;3.33;100.00;99295.66;30752393;28;20087;-74
2022/02/07 18:27:18;;;;;;;35.40;15.47;;;;;;;3.28;100.00;99285.34;30780719;28;20135;-76
2022/02/07 18:42:20;;;;;;;31.43;14.97;;;;;;;3.33;100.00;99279.56;30723785;28;20139;-75
2022/02/07 18:57:29;;;;;;;33.53;16.43;;;;;;;3.37;100.00;99293.72;30767170;28;20146;-73
2022/02/07 19:12:31;;;;;;;31.20;14.73;;;;;;;3.38;100.00;99289.88;30739750;28;20051;-74
2022/02/07 19:27:50;;;;;;;35.20;15.90;;;;;;;3.42;100.00;99274.53;30768305;28;20051;-73
2022/02/07 19:42:55;;;;;;;28.43;16.13;;;;;;;3.34;100.00;99286.44;30713871;28;20475;-75
2022/02/07 19:57:59;;;;;;;31.90;13.60;;;;;;;3.39;100.00;99278.78;30755156;28;20520;-75
2022/02/07 20:13:04;;;;;;;31.13;14.57;;;;;;;3.48;100.00;99264.19;30733408;28;20058;-74
2022/02/07 20:28:08;;;;;;;29.93;12.63;;;;;;;3.52;100.00;99276.44;30720356;28;20528;-73
2022/02/07 20:43:10;;;;;;;29.17;13.27;;;;;;;3.47;100.00;99257.28;30700691;28;20118;-74
2022/02/07 20:58:14;;;;;;;32.47;15.07;;;;;;;3.40;100.00;99247.34;30754210;28;20054;-73
2022/02/07 21:13:36;;;;;;;25.23;12.67;;;;;;;3.45;100.00;99246.94;30738378;28;20042;-74
2022/02/07 21:28:38;;;;;;;31.73;13.13;;;;;;;3.59;100.00;99256.81;30704939;28;20720;-73
2022/02/07 21:43:40;;;;;;;30.23;13.37;;;;;;;3.66;100.00;99254.13;30722514;28;20047;-74
2022/02/07 21:58:42;;;;;;;29.47;13.33;;;;;;;3.72;100.00;99236.44;30698133;28;20063;-74
2022/02/07 22:13:47;;;;;;;25.30;13.50;;;;;;;3.75;100.00;99228.38;30722066;28;20129;-74
2022/02/07 22:29:00;;;;;;;27.03;13.20;;;;;;;3.78;100.00;99218.00;30720544;28;20055;-73
2022/02/07 22:44:02;;;;;;;28.77;13.80;;;;;;;3.58;100.00;99221.16;30725676;28;20147;-72
2022/02/07 22:59:04;;;;;;;37.23;13.43;;;;;;;3.53;100.00;99212.78;30730332;28;20058;-74
2022/02/07 23:44:44;;;;;;;32.67;12.93;;;;;;;3.54;100.00;99225.81;30718656;28;20478;-74
2022/02/07 23:59:50;;;;;;;27.53;13.93;;;;;;;3.39;100.00;99245.81;30692916;28;20051;-73
